sensor_id;sensor_type;location;lat;lon;timestamp;P1;durP1;ratioP1;P2;durP2;ratioP2
16760;SDS011;8498;52.516;13.790;2023-02-28T00:04:34;8.13;;;3.53;;
16760;SDS011;8498;52.516;13.790;2023-02-28T00:09:56;8.40;;;3.50;;
16760;SDS011;8498;52.516;13.790;2023-02-28T00:15:19;8.70;;;3.43;;
16760;SDS011;8498;52.516;13.790;2023-02-28T00:20:42;5.43;;;3.20;;
16760;SDS011;8498;52.516;13.790;2023-02-28T00:26:04;5.33;;;3.90;;
16760;SDS011;8498;52.516;13.790;2023-02-28T00:31:27;5.23;;;3.53;;
16760;SDS011;8498;52.516;13.790;2023-02-28T00:36:50;4.63;;;3.33;;
16760;SDS011;8498;52.516;13.790;2023-02-28T00:42:13;5.30;;;3.07;;
16760;SDS011;8498;52.516;13.790;2023-02-28T00:47:36;5.40;;;2.73;;
16760;SDS011;8498;52.516;13.790;2023-02-28T00:52:58;8.33;;;3.90;;
16760;SDS011;8498;52.516;13.790;2023-02-28T00:58:21;4.37;;;3.13;;
16760;SDS011;8498;52.516;13.790;2023-02-28T01:03:43;8.10;;;3.47;;
16760;SDS011;8498;52.516;13.790;2023-02-28T01:09:06;8.43;;;3.87;;
16760;SDS011;8498;52.516;13.790;2023-02-28T01:14:28;13.23;;;4.17;;
16760;SDS011;8498;52.516;13.790;2023-02-28T01:19:52;6.33;;;3.80;;
16760;SDS011;8498;52.516;13.790;2023-02-28T01:25:19;9.20;;;3.83;;
16760;SDS011;8498;52.516;13.790;2023-02-28T01:30:42;9.17;;;3.77;;
16760;SDS011;8498;52.516;13.790;2023-02-28T01:36:05;6.97;;;3.90;;
16760;SDS011;8498;52.516;13.790;2023-02-28T01:41:32;6.33;;;3.50;;
16760;SDS011;8498;52.516;13.790;2023-02-28T01:46:56;13.67;;;3.97;;
16760;SDS011;8498;52.516;13.790;2023-02-28T01:52:18;7.10;;;4.07;;
16760;SDS011;8498;52.516;13.790;2023-02-28T01:57:50;8.23;;;4.27;;
16760;SDS011;8498;52.516;13.790;2023-02-28T02:03:16;11.73;;;4.57;;
16760;SDS011;8498;52.516;13.790;2023-02-28T02:08:42;7.43;;;3.93;;
16760;SDS011;8498;52.516;13.790;2023-02-28T02:19:41;8.73;;;3.80;;
16760;SDS011;8498;52.516;13.790;2023-02-28T02:31:56;8.20;;;4.33;;
16760;SDS011;8498;52.516;13.790;2023-02-28T02:37:23;8.87;;;3.60;;
16760;SDS011;8498;52.516;13.790;2023-02-28T02:48:29;6.67;;;4.10;;
16760;SDS011;8498;52.516;13.790;2023-02-28T02:53:58;8.97;;;3.80;;
16760;SDS011;8498;52.516;13.790;2023-02-28T02:59:27;7.03;;;4.13;;
16760;SDS011;8498;52.516;13.790;2023-02-28T03:04:52;8.67;;;4.10;;
16760;SDS011;8498;52.516;13.790;2023-02-28T03:10:30;8.20;;;4.33;;
16760;SDS011;8498;52.516;13.790;2023-02-28T03:15:57;9.07;;;3.83;;
16760;SDS011;8498;52.516;13.790;2023-02-28T03:26:52;5.67;;;3.73;;
16760;SDS011;8498;52.516;13.790;2023-02-28T03:38:24;7.97;;;3.93;;
16760;SDS011;8498;52.516;13.790;2023-02-28T03:43:50;7.87;;;3.93;;
16760;SDS011;8498;52.516;13.790;2023-02-28T03:49:21;10.37;;;4.20;;
16760;SDS011;8498;52.516;13.790;2023-02-28T03:54:50;7.13;;;4.17;;
16760;SDS011;8498;52.516;13.790;2023-02-28T04:00:19;9.27;;;4.17;;
16760;SDS011;8498;52.516;13.790;2023-02-28T04:05:52;8.03;;;4.27;;
16760;SDS011;8498;52.516;13.790;2023-02-28T04:16:59;8.70;;;3.93;;
16760;SDS011;8498;52.516;13.790;2023-02-28T04:22:21;7.67;;;4.13;;
16760;SDS011;8498;52.516;13.790;2023-02-28T04:27:44;7.10;;;3.93;;
16760;SDS011;8498;52.516;13.790;2023-02-28T04:33:06;6.50;;;3.50;;
16760;SDS011;8498;52.516;13.790;2023-02-28T04:38:29;5.53;;;3.50;;
16760;SDS011;8498;52.516;13.790;2023-02-28T04:43:54;8.50;;;3.80;;
16760;SDS011;8498;52.516;13.790;2023-02-28T04:49:17;7.37;;;4.27;;
16760;SDS011;8498;52.516;13.790;2023-02-28T04:54:39;9.27;;;4.43;;
16760;SDS011;8498;52.516;13.790;2023-02-28T05:00:02;12.63;;;5.73;;
16760;SDS011;8498;52.516;13.790;2023-02-28T05:05:27;12.60;;;4.43;;
16760;SDS011;8498;52.516;13.790;2023-02-28T05:10:49;7.13;;;4.53;;
16760;SDS011;8498;52.516;13.790;2023-02-28T05:16:12;11.57;;;4.90;;
16760;SDS011;8498;52.516;13.790;2023-02-28T05:21:39;10.00;;;5.37;;
16760;SDS011;8498;52.516;13.790;2023-02-28T05:27:03;17.30;;;5.60;;
16760;SDS011;8498;52.516;13.790;2023-02-28T05:32:25;10.97;;;5.97;;
16760;SDS011;8498;52.516;13.790;2023-02-28T05:37:47;11.10;;;6.00;;
16760;SDS011;8498;52.516;13.790;2023-02-28T05:43:10;16.33;;;6.90;;
16760;SDS011;8498;52.516;13.790;2023-02-28T05:48:34;18.10;;;7.67;;
16760;SDS011;8498;52.516;13.790;2023-02-28T05:53:59;12.57;;;7.00;;
16760;SDS011;8498;52.516;13.790;2023-02-28T05:59:23;14.70;;;7.07;;
16760;SDS011;8498;52.516;13.790;2023-02-28T06:04:45;13.97;;;6.27;;
16760;SDS011;8498;52.516;13.790;2023-02-28T06:10:08;15.90;;;6.20;;
16760;SDS011;8498;52.516;13.790;2023-02-28T06:15:34;12.77;;;5.90;;
16760;SDS011;8498;52.516;13.790;2023-02-28T06:20:57;15.80;;;6.57;;
16760;SDS011;8498;52.516;13.790;2023-02-28T06:26:20;12.07;;;6.63;;
16760;SDS011;8498;52.516;13.790;2023-02-28T06:31:43;15.67;;;6.80;;
16760;SDS011;8498;52.516;13.790;2023-02-28T06:37:06;14.37;;;6.87;;
16760;SDS011;8498;52.516;13.790;2023-02-28T06:42:29;15.33;;;7.53;;
16760;SDS011;8498;52.516;13.790;2023-02-28T06:47:52;15.77;;;6.20;;
16760;SDS011;8498;52.516;13.790;2023-02-28T06:53:15;13.43;;;6.37;;
16760;SDS011;8498;52.516;13.790;2023-02-28T06:58:38;11.83;;;7.13;;
16760;SDS011;8498;52.516;13.790;2023-02-28T07:04:01;13.33;;;6.40;;
16760;SDS011;8498;52.516;13.790;2023-02-28T07:09:23;16.80;;;6.57;;
16760;SDS011;8498;52.516;13.790;2023-02-28T07:14:46;15.07;;;7.00;;
16760;SDS011;8498;52.516;13.790;2023-02-28T07:20:08;11.83;;;6.17;;
16760;SDS011;8498;52.516;13.790;2023-02-28T07:25:31;14.13;;;6.47;;
16760;SDS011;8498;52.516;13.790;2023-02-28T07:30:53;17.60;;;8.30;;
16760;SDS011;8498;52.516;13.790;2023-02-28T07:36:16;19.40;;;7.30;;
16760;SDS011;8498;52.516;13.790;2023-02-28T07:41:40;18.40;;;7.80;;
16760;SDS011;8498;52.516;13.790;2023-02-28T07:47:09;13.20;;;6.40;;
16760;SDS011;8498;52.516;13.790;2023-02-28T07:52:31;17.93;;;7.67;;
16760;SDS011;8498;52.516;13.790;2023-02-28T07:57:54;14.90;;;6.60;;
16760;SDS011;8498;52.516;13.790;2023-02-28T08:03:19;11.33;;;5.60;;
16760;SDS011;8498;52.516;13.790;2023-02-28T08:08:42;9.97;;;5.40;;
16760;SDS011;8498;52.516;13.790;2023-02-28T08:14:06;13.40;;;5.70;;
16760;SDS011;8498;52.516;13.790;2023-02-28T08:19:28;9.47;;;4.57;;
16760;SDS011;8498;52.516;13.790;2023-02-28T08:24:51;11.20;;;4.90;;
16760;SDS011;8498;52.516;13.790;2023-02-28T08:30:13;10.87;;;5.60;;
16760;SDS011;8498;52.516;13.790;2023-02-28T08:35:36;8.73;;;4.67;;
16760;SDS011;8498;52.516;13.790;2023-02-28T08:41:00;7.83;;;4.60;;
16760;SDS011;8498;52.516;13.790;2023-02-28T08:46:24;11.33;;;5.03;;
16760;SDS011;8498;52.516;13.790;2023-02-28T08:51:46;9.13;;;4.37;;
16760;SDS011;8498;52.516;13.790;2023-02-28T08:57:09;8.73;;;4.50;;
16760;SDS011;8498;52.516;13.790;2023-02-28T09:02:32;6.43;;;3.80;;
16760;SDS011;8498;52.516;13.790;2023-02-28T09:07:54;7.60;;;4.10;;
16760;SDS011;8498;52.516;13.790;2023-02-28T09:13:16;5.70;;;3.43;;
16760;SDS011;8498;52.516;13.790;2023-02-28T09:18:40;4.47;;;3.17;;
16760;SDS011;8498;52.516;13.790;2023-02-28T09:24:02;7.63;;;3.20;;
16760;SDS011;8498;52.516;13.790;2023-02-28T09:29:25;7.27;;;2.87;;
16760;SDS011;8498;52.516;13.790;2023-02-28T09:34:47;4.20;;;2.53;;
16760;SDS011;8498;52.516;13.790;2023-02-28T09:40:10;3.47;;;2.57;;
16760;SDS011;8498;52.516;13.790;2023-02-28T09:45:38;8.70;;;2.90;;
16760;SDS011;8498;52.516;13.790;2023-02-28T09:51:11;4.73;;;2.50;;
16760;SDS011;8498;52.516;13.790;2023-02-28T09:56:39;7.93;;;2.67;;
16760;SDS011;8498;52.516;13.790;2023-02-28T10:02:17;4.23;;;2.57;;
16760;SDS011;8498;52.516;13.790;2023-02-28T10:13:34;4.10;;;2.43;;
16760;SDS011;8498;52.516;13.790;2023-02-28T10:19:05;3.03;;;2.17;;
16760;SDS011;8498;52.516;13.790;2023-02-28T10:24:37;7.63;;;2.43;;
16760;SDS011;8498;52.516;13.790;2023-02-28T10:30:01;1.97;;;1.80;;
16760;SDS011;8498;52.516;13.790;2023-02-28T10:35:25;2.60;;;2.13;;
16760;SDS011;8498;52.516;13.790;2023-02-28T10:40:48;2.57;;;1.83;;
16760;SDS011;8498;52.516;13.790;2023-02-28T10:46:15;6.87;;;2.50;;
16760;SDS011;8498;52.516;13.790;2023-02-28T10:51:49;3.40;;;1.93;;
16760;SDS011;8498;52.516;13.790;2023-02-28T10:57:21;1.80;;;1.63;;
16760;SDS011;8498;52.516;13.790;2023-02-28T11:02:48;2.03;;;1.70;;
16760;SDS011;8498;52.516;13.790;2023-02-28T11:08:15;3.60;;;2.20;;
16760;SDS011;8498;52.516;13.790;2023-02-28T11:13:38;3.10;;;2.10;;
16760;SDS011;8498;52.516;13.790;2023-02-28T11:19:01;5.10;;;2.30;;
16760;SDS011;8498;52.516;13.790;2023-02-28T11:24:27;3.17;;;2.20;;
16760;SDS011;8498;52.516;13.790;2023-02-28T11:29:50;4.63;;;2.37;;
16760;SDS011;8498;52.516;13.790;2023-02-28T11:35:32;4.17;;;2.50;;
16760;SDS011;8498;52.516;13.790;2023-02-28T11:41:05;6.17;;;3.17;;
16760;SDS011;8498;52.516;13.790;2023-02-28T11:46:56;4.37;;;2.63;;
16760;SDS011;8498;52.516;13.790;2023-02-28T12:03:58;4.27;;;2.60;;
16760;SDS011;8498;52.516;13.790;2023-02-28T12:43:22;7.23;;;3.03;;
16760;SDS011;8498;52.516;13.790;2023-02-28T12:48:53;2.67;;;2.47;;
16760;SDS011;8498;52.516;13.790;2023-02-28T12:55:05;5.40;;;2.90;;
16760;SDS011;8498;52.516;13.790;2023-02-28T13:00:20;4.63;;;2.90;;
16760;SDS011;8498;52.516;13.790;2023-02-28T13:11:40;5.33;;;2.90;;
16760;SDS011;8498;52.516;13.790;2023-02-28T13:17:14;3.53;;;2.70;;
16760;SDS011;8498;52.516;13.790;2023-02-28T13:22:42;5.67;;;2.60;;
16760;SDS011;8498;52.516;13.790;2023-02-28T13:28:10;2.90;;;2.27;;
16760;SDS011;8498;52.516;13.790;2023-02-28T13:33:36;3.60;;;2.20;;
16760;SDS011;8498;52.516;13.790;2023-02-28T14:07:23;5.53;;;2.70;;
16760;SDS011;8498;52.516;13.790;2023-02-28T14:12:52;4.50;;;2.70;;
16760;SDS011;8498;52.516;13.790;2023-02-28T14:18:34;4.00;;;2.50;;
16760;SDS011;8498;52.516;13.790;2023-02-28T14:24:16;6.00;;;3.47;;
16760;SDS011;8498;52.516;13.790;2023-02-28T14:30:04;5.23;;;2.80;;
16760;SDS011;8498;52.516;13.790;2023-02-28T14:41:29;4.73;;;2.83;;
16760;SDS011;8498;52.516;13.790;2023-02-28T14:46:58;5.27;;;3.00;;
16760;SDS011;8498;52.516;13.790;2023-02-28T14:52:28;5.70;;;2.90;;
16760;SDS011;8498;52.516;13.790;2023-02-28T14:57:54;5.50;;;3.00;;
16760;SDS011;8498;52.516;13.790;2023-02-28T15:03:24;6.50;;;3.57;;
16760;SDS011;8498;52.516;13.790;2023-02-28T15:09:16;4.83;;;3.23;;
16760;SDS011;8498;52.516;13.790;2023-02-28T15:14:42;7.20;;;3.83;;
16760;SDS011;8498;52.516;13.790;2023-02-28T15:20:10;6.20;;;3.33;;
16760;SDS011;8498;52.516;13.790;2023-02-28T15:25:37;6.80;;;3.60;;
16760;SDS011;8498;52.516;13.790;2023-02-28T15:31:02;6.50;;;3.40;;
16760;SDS011;8498;52.516;13.790;2023-02-28T15:36:39;9.30;;;3.50;;
16760;SDS011;8498;52.516;13.790;2023-02-28T15:42:11;6.17;;;3.93;;
16760;SDS011;8498;52.516;13.790;2023-02-28T15:47:34;5.90;;;3.20;;
16760;SDS011;8498;52.516;13.790;2023-02-28T15:52:58;6.27;;;3.40;;
16760;SDS011;8498;52.516;13.790;2023-02-28T15:58:22;5.50;;;3.07;;
16760;SDS011;8498;52.516;13.790;2023-02-28T16:03:48;7.03;;;3.20;;
16760;SDS011;8498;52.516;13.790;2023-02-28T16:09:13;7.60;;;3.90;;
16760;SDS011;8498;52.516;13.790;2023-02-28T16:14:39;21.97;;;7.80;;
16760;SDS011;8498;52.516;13.790;2023-02-28T16:20:05;12.17;;;5.17;;
16760;SDS011;8498;52.516;13.790;2023-02-28T16:25:40;10.57;;;5.27;;
16760;SDS011;8498;52.516;13.790;2023-02-28T16:31:05;8.27;;;4.57;;
16760;SDS011;8498;52.516;13.790;2023-02-28T16:36:30;6.03;;;3.40;;
16760;SDS011;8498;52.516;13.790;2023-02-28T16:41:52;7.17;;;3.47;;
16760;SDS011;8498;52.516;13.790;2023-02-28T16:47:15;5.23;;;3.10;;
16760;SDS011;8498;52.516;13.790;2023-02-28T16:52:38;4.73;;;3.23;;
16760;SDS011;8498;52.516;13.790;2023-02-28T16:58:01;5.10;;;3.30;;
16760;SDS011;8498;52.516;13.790;2023-02-28T17:03:26;6.80;;;3.00;;
16760;SDS011;8498;52.516;13.790;2023-02-28T17:08:55;5.60;;;3.47;;
16760;SDS011;8498;52.516;13.790;2023-02-28T17:14:19;6.50;;;3.00;;
16760;SDS011;8498;52.516;13.790;2023-02-28T17:19:43;6.27;;;3.17;;
16760;SDS011;8498;52.516;13.790;2023-02-28T17:25:07;7.60;;;4.30;;
16760;SDS011;8498;52.516;13.790;2023-02-28T17:30:31;9.73;;;5.00;;
16760;SDS011;8498;52.516;13.790;2023-02-28T17:35:55;9.37;;;4.43;;
16760;SDS011;8498;52.516;13.790;2023-02-28T17:41:18;16.13;;;6.23;;
16760;SDS011;8498;52.516;13.790;2023-02-28T17:46:41;24.10;;;8.27;;
16760;SDS011;8498;52.516;13.790;2023-02-28T17:52:04;21.77;;;9.93;;
16760;SDS011;8498;52.516;13.790;2023-02-28T17:57:26;20.77;;;9.37;;
16760;SDS011;8498;52.516;13.790;2023-02-28T18:02:49;20.20;;;9.10;;
16760;SDS011;8498;52.516;13.790;2023-02-28T18:08:12;21.33;;;8.93;;
16760;SDS011;8498;52.516;13.790;2023-02-28T18:13:35;16.97;;;7.13;;
16760;SDS011;8498;52.516;13.790;2023-02-28T18:18:57;11.40;;;6.67;;
16760;SDS011;8498;52.516;13.790;2023-02-28T18:24:20;10.33;;;5.93;;
16760;SDS011;8498;52.516;13.790;2023-02-28T18:29:43;15.03;;;6.90;;
16760;SDS011;8498;52.516;13.790;2023-02-28T18:35:06;17.63;;;6.63;;
16760;SDS011;8498;52.516;13.790;2023-02-28T18:40:29;12.97;;;6.03;;
16760;SDS011;8498;52.516;13.790;2023-02-28T18:45:52;13.83;;;5.77;;
16760;SDS011;8498;52.516;13.790;2023-02-28T18:51:25;6.97;;;4.00;;
16760;SDS011;8498;52.516;13.790;2023-02-28T18:56:48;7.73;;;4.10;;
16760;SDS011;8498;52.516;13.790;2023-02-28T19:02:11;7.80;;;4.07;;
16760;SDS011;8498;52.516;13.790;2023-02-28T19:07:34;7.50;;;4.03;;
16760;SDS011;8498;52.516;13.790;2023-02-28T19:12:57;14.47;;;5.00;;
16760;SDS011;8498;52.516;13.790;2023-02-28T19:18:19;16.90;;;7.57;;
16760;SDS011;8498;52.516;13.790;2023-02-28T19:23:42;19.10;;;9.90;;
16760;SDS011;8498;52.516;13.790;2023-02-28T19:29:04;24.27;;;11.70;;
16760;SDS011;8498;52.516;13.790;2023-02-28T19:34:27;21.03;;;11.53;;
16760;SDS011;8498;52.516;13.790;2023-02-28T19:39:49;19.67;;;10.97;;
16760;SDS011;8498;52.516;13.790;2023-02-28T19:45:15;27.03;;;11.40;;
16760;SDS011;8498;52.516;13.790;2023-02-28T19:50:37;27.87;;;12.13;;
16760;SDS011;8498;52.516;13.790;2023-02-28T19:56:02;28.77;;;12.30;;
16760;SDS011;8498;52.516;13.790;2023-02-28T20:01:25;23.73;;;12.37;;
16760;SDS011;8498;52.516;13.790;2023-02-28T20:06:47;21.47;;;12.23;;
16760;SDS011;8498;52.516;13.790;2023-02-28T20:12:10;27.63;;;12.73;;
16760;SDS011;8498;52.516;13.790;2023-02-28T20:17:45;30.17;;;13.90;;
16760;SDS011;8498;52.516;13.790;2023-02-28T20:23:07;25.90;;;12.57;;
16760;SDS011;8498;52.516;13.790;2023-02-28T20:28:30;31.57;;;13.90;;
16760;SDS011;8498;52.516;13.790;2023-02-28T20:33:52;28.57;;;13.53;;
16760;SDS011;8498;52.516;13.790;2023-02-28T20:39:15;25.77;;;13.50;;
16760;SDS011;8498;52.516;13.790;2023-02-28T20:44:38;32.70;;;14.27;;
16760;SDS011;8498;52.516;13.790;2023-02-28T20:50:00;32.00;;;14.87;;
16760;SDS011;8498;52.516;13.790;2023-02-28T20:55:22;30.87;;;14.70;;
16760;SDS011;8498;52.516;13.790;2023-02-28T21:00:45;36.57;;;14.53;;
16760;SDS011;8498;52.516;13.790;2023-02-28T21:06:09;37.97;;;16.47;;
16760;SDS011;8498;52.516;13.790;2023-02-28T21:11:33;39.20;;;15.77;;
16760;SDS011;8498;52.516;13.790;2023-02-28T21:16:56;32.80;;;14.47;;
16760;SDS011;8498;52.516;13.790;2023-02-28T21:22:19;38.60;;;17.33;;
16760;SDS011;8498;52.516;13.790;2023-02-28T21:27:41;35.50;;;16.57;;
16760;SDS011;8498;52.516;13.790;2023-02-28T21:33:04;38.03;;;16.67;;
16760;SDS011;8498;52.516;13.790;2023-02-28T21:38:26;42.73;;;17.57;;
16760;SDS011;8498;52.516;13.790;2023-02-28T21:43:49;33.20;;;16.17;;
16760;SDS011;8498;52.516;13.790;2023-02-28T21:49:12;38.77;;;16.60;;
16760;SDS011;8498;52.516;13.790;2023-02-28T21:54:36;38.30;;;16.50;;
16760;SDS011;8498;52.516;13.790;2023-02-28T21:59:58;42.60;;;17.80;;
16760;SDS011;8498;52.516;13.790;2023-02-28T22:05:22;40.20;;;17.17;;
16760;SDS011;8498;52.516;13.790;2023-02-28T22:10:44;42.67;;;17.37;;
16760;SDS011;8498;52.516;13.790;2023-02-28T22:16:08;44.60;;;18.40;;
16760;SDS011;8498;52.516;13.790;2023-02-28T22:21:36;44.50;;;18.93;;
16760;SDS011;8498;52.516;13.790;2023-02-28T22:27:00;43.30;;;18.50;;
16760;SDS011;8498;52.516;13.790;2023-02-28T22:32:23;37.50;;;18.03;;
16760;SDS011;8498;52.516;13.790;2023-02-28T22:37:46;44.13;;;16.57;;
16760;SDS011;8498;52.516;13.790;2023-02-28T22:43:09;40.97;;;16.73;;
16760;SDS011;8498;52.516;13.790;2023-02-28T22:48:33;36.47;;;16.63;;
16760;SDS011;8498;52.516;13.790;2023-02-28T22:53:56;36.80;;;14.77;;
16760;SDS011;8498;52.516;13.790;2023-02-28T22:59:19;41.03;;;16.77;;
16760;SDS011;8498;52.516;13.790;2023-02-28T23:04:42;41.97;;;15.30;;
16760;SDS011;8498;52.516;13.790;2023-02-28T23:10:05;41.33;;;15.97;;
16760;SDS011;8498;52.516;13.790;2023-02-28T23:15:30;36.20;;;15.70;;
16760;SDS011;8498;52.516;13.790;2023-02-28T23:20:54;31.63;;;13.57;;
16760;SDS011;8498;52.516;13.790;2023-02-28T23:26:18;31.37;;;12.53;;
16760;SDS011;8498;52.516;13.790;2023-02-28T23:31:40;37.13;;;14.10;;
16760;SDS011;8498;52.516;13.790;2023-02-28T23:37:03;36.27;;;14.40;;
16760;SDS011;8498;52.516;13.790;2023-02-28T23:42:26;39.33;;;16.30;;
16760;SDS011;8498;52.516;13.790;2023-02-28T23:47:48;37.13;;;13.83;;
16760;SDS011;8498;52.516;13.790;2023-02-28T23:53:10;31.93;;;12.57;;
16760;SDS011;8498;52.516;13.790;2023-02-28T23:58:33;26.97;;;13.10;;
